Time;durP1;ratioP1;P1;durP2;ratioP2;P2;SDS_P1;SDS_P2;PMS_P1;PMS_P2;Temp;Humidity;BMP_temperature;BMP_pressure;BME280_temperature;BME280_humidity;BME280_pressure;Samples;Min_cycle;Max_cycle;Signal;HPM_P1;HPM_P2
2022/07/16 00:01:24;;;;;;;7.70;3.50;;;14.10;99.90;;;;;;5022924;28;21062;-71
2022/07/16 00:03:52;;;;;;;7.63;3.50;;;14.10;99.90;;;;;;5019495;28;20454;-72
2022/07/16 00:06:19;;;;;;;3.63;3.10;;;14.10;99.90;;;;;;5001503;28;21042;-71
2022/07/16 00:08:47;;;;;;;7.70;3.10;;;14.10;99.90;;;;;;4992317;28;20451;-72
2022/07/16 00:11:14;;;;;;;7.23;3.00;;;14.10;99.90;;;;;;4991274;28;20494;-72
2022/07/16 00:13:41;;;;;;;6.83;4.13;;;14.00;99.90;;;;;;4991869;28;20455;-71
2022/07/16 00:16:08;;;;;;;3.50;3.20;;;14.00;99.90;;;;;;4991774;28;20521;-72
2022/07/16 00:21:19;;;;;;;6.03;3.70;;;13.90;99.90;;;;;;5027096;28;20559;-71
2022/07/16 00:23:47;;;;;;;5.13;3.43;;;13.90;99.90;;;;;;5034662;28;20453;-72
2022/07/16 00:26:14;;;;;;;9.10;4.10;;;14.00;99.90;;;;;;5034483;28;20485;-71
2022/07/16 00:28:41;;;;;;;5.73;2.87;;;14.00;99.90;;;;;;5023574;28;20462;-72
2022/07/16 00:31:08;;;;;;;3.57;3.00;;;14.00;99.90;;;;;;5014715;28;20935;-71
2022/07/16 00:33:34;;;;;;;6.17;3.40;;;14.10;99.90;;;;;;5014144;28;20966;-72
2022/07/16 00:36:01;;;;;;;5.50;3.17;;;14.10;99.90;;;;;;5023401;28;20825;-72
2022/07/16 00:38:28;;;;;;;3.93;3.20;;;14.10;99.90;;;;;;5034643;28;20453;-72
2022/07/16 00:40:55;;;;;;;8.23;4.17;;;14.10;99.90;;;;;;5034373;28;20485;-71
2022/07/16 00:43:22;;;;;;;5.07;3.90;;;14.10;99.90;;;;;;5034333;28;20584;-71
2022/07/16 00:45:49;;;;;;;4.47;3.50;;;14.10;99.90;;;;;;5034397;28;20830;-71
2022/07/16 00:48:16;;;;;;;4.87;3.20;;;14.10;99.90;;;;;;5034312;28;20967;-72
2022/07/16 00:50:43;;;;;;;7.20;3.10;;;14.00;99.90;;;;;;5025268;28;20959;-72
2022/07/16 00:53:11;;;;;;;11.90;4.00;;;14.00;99.90;;;;;;5014333;28;20452;-71
2022/07/16 00:55:38;;;;;;;5.13;3.57;;;14.00;99.90;;;;;;5017568;28;21054;-72
2022/07/16 00:58:07;;;;;;;4.63;3.40;;;14.00;99.90;;;;;;5034335;28;20457;-71
2022/07/16 01:00:34;;;;;;;7.53;3.90;;;14.00;99.90;;;;;;5034126;28;20449;-72
2022/07/16 01:03:01;;;;;;;3.70;3.40;;;13.90;99.90;;;;;;5029137;28;20446;-71
2022/07/16 01:05:27;;;;;;;5.17;3.10;;;13.90;99.90;;;;;;5014013;28;20477;-72
2022/07/16 01:07:56;;;;;;;3.73;3.20;;;13.80;99.90;;;;;;5014279;28;20450;-71
2022/07/16 01:10:23;;;;;;;9.20;3.60;;;13.80;99.90;;;;;;5014137;28;20512;-71
2022/07/16 01:12:50;;;;;;;9.23;3.53;;;13.80;99.90;;;;;;5014260;28;20438;-72
2022/07/16 01:15:18;;;;;;;5.87;4.13;;;13.80;99.90;;;;;;5013710;28;20453;-72
2022/07/16 01:17:45;;;;;;;6.13;4.10;;;13.70;99.90;;;;;;5014007;28;20496;-72
2022/07/16 01:20:12;;;;;;;6.03;4.30;;;13.70;99.90;;;;;;5013705;28;20446;-71
2022/07/16 01:22:39;;;;;;;6.17;3.70;;;13.60;99.90;;;;;;5014043;28;20539;-73
2022/07/16 01:25:10;;;;;;;5.03;3.67;;;13.60;99.90;;;;;;5031884;28;21019;-71
2022/07/16 01:27:38;;;;;;;3.60;3.30;;;13.60;99.90;;;;;;5033737;28;20464;-72
2022/07/16 01:30:07;;;;;;;4.80;3.43;;;13.60;99.90;;;;;;5032973;28;20451;-71
2022/07/16 01:32:34;;;;;;;5.90;3.27;;;13.50;99.90;;;;;;5026565;28;20834;-71
2022/07/16 01:35:01;;;;;;;4.83;2.97;;;13.50;99.90;;;;;;5013674;28;20450;-72
2022/07/16 01:37:27;;;;;;;11.63;3.53;;;13.50;99.90;;;;;;5013498;28;20822;-72
2022/07/16 01:39:54;;;;;;;3.80;3.43;;;13.40;99.90;;;;;;5013911;28;20508;-71
2022/07/16 01:42:22;;;;;;;3.23;3.03;;;13.40;99.90;;;;;;5013458;28;20540;-72
2022/07/16 01:44:49;;;;;;;3.93;3.63;;;13.30;99.90;;;;;;5013279;28;20454;-72
2022/07/16 01:47:15;;;;;;;6.97;3.83;;;13.20;99.90;;;;;;5013017;28;20469;-72
2022/07/16 01:49:42;;;;;;;4.70;3.30;;;13.10;99.90;;;;;;5013701;28;20454;-72
2022/07/16 01:52:11;;;;;;;6.37;3.90;;;13.10;99.90;;;;;;5013521;28;20454;-72
2022/07/16 01:54:42;;;;;;;15.83;5.27;;;13.00;99.90;;;;;;5014182;28;20484;-72
2022/07/16 01:57:09;;;;;;;9.20;4.87;;;13.00;99.90;;;;;;5013213;28;21040;-72
2022/07/16 01:59:37;;;;;;;9.93;4.60;;;13.00;99.90;;;;;;5013265;28;20525;-72
2022/07/16 02:02:03;;;;;;;4.13;3.77;;;12.90;99.90;;;;;;5031862;28;20483;-72
2022/07/16 02:04:30;;;;;;;9.70;4.70;;;12.90;99.90;;;;;;5015906;28;20447;-72
2022/07/16 02:06:57;;;;;;;5.47;4.43;;;12.90;99.90;;;;;;5013104;28;20466;-72
2022/07/16 02:09:23;;;;;;;5.40;4.53;;;12.90;99.90;;;;;;5013181;28;20450;-72
2022/07/16 02:11:50;;;;;;;5.73;4.43;;;12.80;99.90;;;;;;5012230;28;20450;-72
2022/07/16 02:14:17;;;;;;;6.43;4.23;;;12.80;99.90;;;;;;5011582;28;20504;-72
2022/07/16 02:16:46;;;;;;;7.43;4.80;;;12.70;99.90;;;;;;5012828;28;20971;-72
2022/07/16 02:19:12;;;;;;;10.00;4.57;;;12.70;99.90;;;;;;5013264;28;20504;-72
2022/07/16 02:21:39;;;;;;;7.57;4.57;;;12.60;99.90;;;;;;5012649;28;20486;-72
2022/07/16 02:24:06;;;;;;;8.70;4.73;;;12.60;99.90;;;;;;5012776;28;20445;-72
2022/07/16 02:26:33;;;;;;;7.07;4.47;;;12.50;99.90;;;;;;5012321;28;20482;-72
2022/07/16 02:29:00;;;;;;;7.37;4.27;;;12.50;99.90;;;;;;5019530;28;20484;-72
2022/07/16 02:31:27;;;;;;;5.20;3.90;;;12.40;99.90;;;;;;5032444;28;20847;-72
2022/07/16 02:33:55;;;;;;;14.53;4.13;;;12.30;99.90;;;;;;5018330;28;20496;-72
2022/07/16 02:36:21;;;;;;;4.53;4.13;;;12.20;99.90;;;;;;5012287;28;20474;-72
2022/07/16 02:38:48;;;;;;;4.67;3.60;;;12.20;99.90;;;;;;5012744;28;20454;-72
2022/07/16 02:41:14;;;;;;;6.37;4.03;;;12.20;99.90;;;;;;5011999;28;20450;-72
2022/07/16 02:43:41;;;;;;;4.20;3.80;;;12.20;99.90;;;;;;5012386;28;20504;-72
2022/07/16 02:46:08;;;;;;;4.87;3.90;;;12.20;99.90;;;;;;5012270;28;20470;-72
2022/07/16 02:48:34;;;;;;;8.90;4.07;;;12.20;99.90;;;;;;5012575;28;20515;-72
2022/07/16 02:51:02;;;;;;;3.87;3.57;;;12.20;99.90;;;;;;5012354;28;21023;-72
2022/07/16 02:53:29;;;;;;;7.07;4.80;;;12.20;99.90;;;;;;5012050;28;20447;-72
2022/07/16 02:55:55;;;;;;;3.87;3.57;;;12.30;99.90;;;;;;5012235;28;20470;-72
2022/07/16 02:58:22;;;;;;;5.10;4.00;;;12.30;99.90;;;;;;5012486;28;20504;-72
2022/07/16 03:00:50;;;;;;;7.40;3.90;;;12.30;99.90;;;;;;5021474;28;20507;-72
2022/07/16 03:03:17;;;;;;;8.07;4.10;;;12.30;99.90;;;;;;5024441;28;21009;-72
2022/07/16 03:05:43;;;;;;;4.97;4.47;;;12.30;99.90;;;;;;5012070;28;21007;-72
2022/07/16 03:08:11;;;;;;;7.30;4.67;;;12.30;99.90;;;;;;5012176;28;20450;-72
2022/07/16 03:10:38;;;;;;;5.20;4.00;;;12.30;99.90;;;;;;5020992;28;20449;-72
2022/07/16 03:13:04;;;;;;;10.50;4.33;;;12.20;99.90;;;;;;5031702;28;20524;-72
2022/07/16 03:15:31;;;;;;;4.70;4.30;;;12.30;99.90;;;;;;5031680;28;20980;-72
2022/07/16 03:17:58;;;;;;;7.97;4.43;;;12.20;99.90;;;;;;5031876;28;20515;-72
2022/07/16 03:20:25;;;;;;;4.97;4.10;;;12.20;99.90;;;;;;5031402;28;21011;-72
2022/07/16 03:22:52;;;;;;;4.67;4.30;;;12.20;99.90;;;;;;5031792;28;20604;-72
2022/07/16 03:25:20;;;;;;;6.47;4.20;;;12.20;99.90;;;;;;5031245;28;20457;-72
2022/07/16 03:27:47;;;;;;;5.57;4.43;;;12.20;99.90;;;;;;5028276;28;20446;-72
2022/07/16 03:30:15;;;;;;;9.50;4.73;;;12.10;99.90;;;;;;5011949;28;20500;-72
2022/07/16 03:32:42;;;;;;;4.87;3.90;;;12.10;99.90;;;;;;5017681;28;20864;-72
2022/07/16 03:35:10;;;;;;;4.60;4.17;;;12.10;99.90;;;;;;5031670;28;20445;-72
2022/07/16 03:38:57;;;;;;;5.20;3.87;;;12.10;99.90;;;;;;5031258;28;20454;-72
2022/07/16 03:40:26;;;;;;;6.30;4.43;;;12.10;99.90;;;;;;5031368;28;20446;-72
2022/07/16 03:42:53;;;;;;;6.87;5.00;;;12.00;99.90;;;;;;5031294;28;21002;-72
2022/07/16 03:45:20;;;;;;;4.30;3.90;;;12.10;99.90;;;;;;5031102;28;21108;-72
2022/07/16 03:47:47;;;;;;;6.43;4.27;;;12.10;99.90;;;;;;5031578;28;20453;-72
2022/07/16 03:50:14;;;;;;;4.43;4.07;;;12.00;99.90;;;;;;5031735;28;20485;-72
2022/07/16 03:52:40;;;;;;;11.50;4.47;;;12.00;99.90;;;;;;5016669;28;20561;-72
2022/07/16 03:55:08;;;;;;;9.10;4.27;;;12.00;99.90;;;;;;5015431;28;20453;-72
2022/07/16 03:57:36;;;;;;;7.37;4.40;;;12.10;99.90;;;;;;5015584;28;20446;-72
2022/07/16 04:00:03;;;;;;;4.80;4.40;;;12.10;99.90;;;;;;5015486;28;20454;-72
2022/07/16 04:02:30;;;;;;;4.20;3.80;;;12.00;99.90;;;;;;5014706;28;20539;-72
2022/07/16 04:04:57;;;;;;;4.50;4.17;;;12.10;99.90;;;;;;4995596;28;20947;-72
2022/07/16 04:07:23;;;;;;;12.73;4.97;;;12.10;99.90;;;;;;5028112;28;20477;-72
2022/07/16 04:09:50;;;;;;;7.17;5.00;;;12.10;99.90;;;;;;5035100;28;21011;-72
2022/07/16 04:12:16;;;;;;;5.33;4.70;;;12.10;99.90;;;;;;5034947;28;20449;-72
2022/07/16 04:14:44;;;;;;;4.53;4.13;;;12.20;99.90;;;;;;5035173;28;20498;-72
2022/07/16 04:17:11;;;;;;;7.53;4.60;;;12.20;99.90;;;;;;5035332;28;20530;-72
2022/07/16 04:19:38;;;;;;;8.73;4.70;;;12.20;99.90;;;;;;5027008;28;20457;-72
2022/07/16 04:22:05;;;;;;;6.30;4.60;;;12.20;99.90;;;;;;5014865;28;20588;-72
2022/07/16 04:24:32;;;;;;;7.17;4.70;;;12.20;99.90;;;;;;5014494;28;20470;-72
2022/07/16 04:26:58;;;;;;;5.23;4.00;;;12.20;99.90;;;;;;5015196;28;20500;-72
2022/07/16 04:29:25;;;;;;;5.83;4.60;;;12.20;99.90;;;;;;5032523;28;20449;-72
2022/07/16 04:31:53;;;;;;;8.70;4.30;;;12.20;99.90;;;;;;5034838;28;20449;-72
2022/07/16 04:34:20;;;;;;;6.30;4.10;;;12.20;99.90;;;;;;5033961;28;20453;-70
2022/07/16 04:36:46;;;;;;;6.63;4.50;;;12.30;99.90;;;;;;5034421;28;21060;-70
2022/07/16 04:39:13;;;;;;;6.57;5.03;;;12.30;99.90;;;;;;5034593;28;20453;-71
2022/07/16 04:41:40;;;;;;;7.13;4.37;;;12.30;99.90;;;;;;5034568;28;20449;-71
2022/07/16 04:44:07;;;;;;;5.30;3.93;;;12.30;99.90;;;;;;5034266;28;20449;-71
2022/07/16 04:46:33;;;;;;;5.47;4.43;;;12.40;99.90;;;;;;5033269;28;20469;-71
2022/07/16 04:49:01;;;;;;;5.93;4.80;;;12.40;99.90;;;;;;5014535;28;20450;-71
2022/07/16 04:51:28;;;;;;;7.57;4.57;;;12.50;99.90;;;;;;5014370;28;20473;-72
2022/07/16 04:53:55;;;;;;;5.50;4.90;;;12.50;99.90;;;;;;5016338;28;20501;-71
2022/07/16 04:56:21;;;;;;;5.83;4.97;;;12.40;99.90;;;;;;5014507;28;20482;-72
2022/07/16 04:58:48;;;;;;;12.03;5.30;;;12.40;99.90;;;;;;5014438;28;20458;-71
2022/07/16 05:01:14;;;;;;;10.47;5.37;;;12.30;99.90;;;;;;5014120;28;20458;-71
2022/07/16 05:03:41;;;;;;;5.80;5.27;;;12.30;99.90;;;;;;5003231;28;20486;-70
2022/07/16 05:06:09;;;;;;;8.13;5.17;;;12.20;99.90;;;;;;5002054;28;20520;-72
2022/07/16 05:08:36;;;;;;;6.67;5.07;;;12.30;99.90;;;;;;5015918;28;20450;-71
2022/07/16 05:11:02;;;;;;;5.63;5.03;;;12.30;99.90;;;;;;5014395;28;20450;-71
2022/07/16 05:13:29;;;;;;;8.27;4.83;;;12.40;99.90;;;;;;5013944;28;20446;-71
2022/07/16 05:15:55;;;;;;;6.83;5.00;;;12.50;99.90;;;;;;5013924;28;20466;-71
2022/07/16 05:18:22;;;;;;;7.80;5.10;;;12.60;99.90;;;;;;5014209;28;20512;-71
2022/07/16 05:20:49;;;;;;;6.60;5.90;;;12.60;99.90;;;;;;5014184;28;20450;-71
2022/07/16 05:23:17;;;;;;;6.40;5.80;;;12.70;99.90;;;;;;5021490;28;20595;-71
2022/07/16 05:25:43;;;;;;;10.53;5.20;;;12.70;99.90;;;;;;5033789;28;20477;-71
2022/07/16 05:28:10;;;;;;;9.57;6.20;;;12.70;99.90;;;;;;5033655;28;20449;-71
2022/07/16 05:30:37;;;;;;;6.30;5.47;;;12.80;99.90;;;;;;5033224;28;20453;-71
2022/07/16 05:33:03;;;;;;;16.03;5.77;;;13.00;99.90;;;;;;5022990;28;20822;-71
2022/07/16 05:35:30;;;;;;;6.13;5.50;;;13.00;99.90;;;;;;5013557;28;20485;-71
2022/07/16 05:37:57;;;;;;;7.13;5.63;;;13.00;99.90;;;;;;5013570;28;20458;-71
2022/07/16 05:40:25;;;;;;;7.20;5.33;;;13.10;99.90;;;;;;5013792;28;20450;-70
2022/07/16 05:42:51;;;;;;;6.10;5.60;;;13.20;99.90;;;;;;5013387;28;20482;-71
2022/07/16 05:45:18;;;;;;;10.17;5.70;;;13.30;99.90;;;;;;5015360;28;20517;-71
2022/07/16 05:47:45;;;;;;;10.07;5.57;;;13.40;99.90;;;;;;5033401;28;20445;-71
2022/07/16 05:50:12;;;;;;;9.67;5.80;;;13.60;99.90;;;;;;5033203;28;20484;-71
2022/07/16 05:52:38;;;;;;;9.23;4.77;;;13.90;99.90;;;;;;5033166;28;20453;-71
2022/07/16 05:55:06;;;;;;;6.40;5.30;;;14.30;99.90;;;;;;5032992;28;20452;-71
2022/07/16 05:57:34;;;;;;;10.10;4.73;;;14.60;99.90;;;;;;5032720;28;20465;-71
2022/07/16 06:00:00;;;;;;;6.60;4.90;;;14.80;99.90;;;;;;5027664;28;20513;-71
2022/07/16 06:02:27;;;;;;;4.67;4.27;;;15.00;99.90;;;;;;4994000;28;20491;-71
2022/07/16 06:04:54;;;;;;;11.37;4.70;;;15.20;99.90;;;;;;5017497;28;21019;-71
2022/07/16 06:07:20;;;;;;;4.63;4.23;;;15.30;99.90;;;;;;5014231;28;20528;-71
2022/07/16 06:09:47;;;;;;;4.73;4.30;;;15.20;99.90;;;;;;5012774;28;20458;-71
2022/07/16 06:12:14;;;;;;;4.90;4.50;;;15.10;99.90;;;;;;5012878;28;20935;-71
2022/07/16 06:14:42;;;;;;;6.87;4.47;;;15.10;99.90;;;;;;5012752;28;20454;-71
2022/07/16 06:17:08;;;;;;;5.93;4.90;;;15.20;99.90;;;;;;5012369;28;20974;-71
2022/07/16 06:19:35;;;;;;;6.53;5.30;;;15.30;99.90;;;;;;5016604;28;20453;-71
2022/07/16 06:22:02;;;;;;;6.63;5.03;;;15.50;99.90;;;;;;5032445;28;20449;-71
2022/07/16 06:24:28;;;;;;;11.30;5.30;;;15.70;99.90;;;;;;5032031;28;20563;-72
2022/07/16 06:26:55;;;;;;;15.20;5.30;;;15.90;99.90;;;;;;5032280;28;20985;-72
2022/07/16 06:29:21;;;;;;;7.93;4.70;;;16.00;99.90;;;;;;5012993;28;20450;-72
2022/07/16 06:31:50;;;;;;;4.47;4.07;;;16.10;99.90;;;;;;5011916;28;20455;-72
2022/07/16 06:34:16;;;;;;;8.10;4.13;;;16.20;99.90;;;;;;5012152;28;20442;-72
2022/07/16 06:36:43;;;;;;;5.53;4.20;;;16.30;99.90;;;;;;5012609;28;20482;-72
2022/07/16 06:39:10;;;;;;;5.83;4.37;;;16.30;99.90;;;;;;5012572;28;20450;-72
2022/07/16 06:41:37;;;;;;;5.20;4.20;;;16.30;99.90;;;;;;5012621;28;20605;-72
2022/07/16 06:44:05;;;;;;;5.93;3.70;;;16.20;99.90;;;;;;5012390;28;20490;-72
2022/07/16 06:46:31;;;;;;;10.67;3.77;;;16.10;99.90;;;;;;5013175;28;20525;-73
2022/07/16 06:49:00;;;;;;;4.47;4.07;;;16.20;99.90;;;;;;5011949;28;20446;-71
2022/07/16 06:51:27;;;;;;;3.67;3.37;;;16.20;99.90;;;;;;5012263;28;20451;-72
2022/07/16 06:53:54;;;;;;;4.43;3.53;;;16.30;99.90;;;;;;5012148;28;20984;-72
2022/07/16 06:56:20;;;;;;;5.80;3.93;;;16.50;99.90;;;;;;5025336;28;20473;-72
2022/07/16 06:58:47;;;;;;;4.53;3.60;;;16.50;99.90;;;;;;5032202;28;20499;-71
2022/07/16 07:01:14;;;;;;;5.33;3.23;;;16.50;99.90;;;;;;5031675;28;20478;-71
2022/07/16 07:03:41;;;;;;;5.00;4.50;;;16.50;99.90;;;;;;5021189;28;20993;-72
2022/07/16 07:06:09;;;;;;;8.73;3.60;;;16.50;99.90;;;;;;5011849;28;20445;-71
2022/07/16 07:08:36;;;;;;;4.57;3.60;;;16.60;99.90;;;;;;5012229;28;20564;-71
2022/07/16 07:11:04;;;;;;;8.60;3.53;;;16.60;99.90;;;;;;5024731;28;20492;-71
2022/07/16 07:13:30;;;;;;;3.30;3.00;;;16.70;99.90;;;;;;5031638;28;20441;-71
2022/07/16 07:15:58;;;;;;;6.07;3.83;;;16.90;99.90;;;;;;5031581;28;20521;-71
2022/07/16 07:18:25;;;;;;;4.40;3.40;;;17.20;99.90;;;;;;5031684;28;21089;-71
2022/07/16 07:20:52;;;;;;;4.83;3.40;;;17.30;99.90;;;;;;5031373;28;21003;-70
2022/07/16 07:23:19;;;;;;;5.27;3.40;;;17.40;99.90;;;;;;5014217;28;20519;-71
2022/07/16 07:25:46;;;;;;;8.10;3.40;;;17.60;99.90;;;;;;5011838;28;20486;-72
2022/07/16 07:28:13;;;;;;;4.40;3.63;;;18.00;99.90;;;;;;5011248;28;20524;-71
2022/07/16 07:30:39;;;;;;;3.80;3.13;;;18.30;99.90;;;;;;5011394;28;21075;-71
2022/07/16 07:33:06;;;;;;;4.17;3.07;;;18.80;99.90;;;;;;5020821;28;20924;-71
2022/07/16 07:35:33;;;;;;;3.27;2.90;;;19.20;99.90;;;;;;5030998;28;20515;-71
2022/07/16 07:38:01;;;;;;;5.47;2.90;;;19.60;99.90;;;;;;5031737;28;20428;-71
2022/07/16 07:40:29;;;;;;;3.00;2.50;;;19.90;99.90;;;;;;5031405;28;20467;-71
2022/07/16 07:42:56;;;;;;;5.57;2.60;;;20.30;99.90;;;;;;5031278;28;20489;-70
2022/07/16 07:45:23;;;;;;;4.43;2.40;;;20.60;99.90;;;;;;5029334;28;20620;-71
2022/07/16 07:47:49;;;;;;;5.03;2.40;;;20.90;99.90;;;;;;5031643;28;20500;-72
2022/07/16 07:50:16;;;;;;;7.23;3.00;;;21.20;99.90;;;;;;5031014;28;20453;-73
2022/07/16 07:52:43;;;;;;;5.43;3.23;;;21.30;99.90;;;;;;5014165;28;20888;-73
2022/07/16 07:55:09;;;;;;;6.30;2.60;;;21.50;99.90;;;;;;5010604;28;20469;-73
2022/07/16 07:57:37;;;;;;;4.40;2.80;;;21.70;99.90;;;;;;5011582;28;20474;-72
2022/07/16 08:00:06;;;;;;;3.47;2.20;;;21.70;99.90;;;;;;5011442;28;20447;-73
2022/07/16 08:02:33;;;;;;;10.93;2.20;;;21.80;99.90;;;;;;5011556;28;20471;-73
2022/07/16 08:04:59;;;;;;;9.70;2.47;;;21.80;99.90;;;;;;5010980;28;20491;-72
2022/07/16 08:07:27;;;;;;;7.03;2.60;;;21.80;99.90;;;;;;5011276;28;20528;-72
2022/07/16 08:09:53;;;;;;;8.10;2.60;;;21.80;99.90;;;;;;5022440;28;20457;-72
2022/07/16 08:12:20;;;;;;;6.67;2.47;;;21.80;99.90;;;;;;5030832;28;20457;-72
2022/07/16 08:14:48;;;;;;;5.37;2.67;;;21.60;99.90;;;;;;5030713;28;20779;-72
2022/07/16 08:17:15;;;;;;;3.60;2.20;;;21.60;99.90;;;;;;5031074;28;20515;-73
2022/07/16 08:19:41;;;;;;;6.47;2.57;;;21.60;99.90;;;;;;5018197;28;20454;-72
2022/07/16 08:22:08;;;;;;;4.17;2.43;;;21.60;99.90;;;;;;5011399;28;20512;-71
2022/07/16 08:27:19;;;;;;;5.23;2.47;;;21.60;99.90;;;;;;5011462;28;20981;-72
2022/07/16 08:29:46;;;;;;;2.40;2.20;;;21.70;99.90;;;;;;5011117;28;20462;-72
2022/07/16 08:32:13;;;;;;;5.63;2.40;;;21.70;99.90;;;;;;5011143;28;20457;-72
2022/07/16 08:34:40;;;;;;;4.70;2.47;;;21.80;99.90;;;;;;5011044;28;20447;-73
2022/07/16 08:37:08;;;;;;;4.13;2.47;;;22.00;99.90;;;;;;5011003;28;20482;-73
2022/07/16 08:39:39;;;;;;;2.43;2.20;;;22.30;99.90;;;;;;5012198;28;20442;-73
2022/07/16 08:42:07;;;;;;;6.80;3.00;;;22.60;99.90;;;;;;5014629;28;20945;-73
2022/07/16 08:44:34;;;;;;;2.87;2.13;;;22.80;99.90;;;;;;5028935;28;20495;-73
2022/07/16 08:47:01;;;;;;;3.23;2.30;;;23.00;99.90;;;;;;5034247;28;20473;-72
2022/07/16 08:49:30;;;;;;;3.00;2.50;;;23.10;99.90;;;;;;5034205;28;20461;-73
2022/07/16 08:52:02;;;;;;;2.87;2.33;;;23.10;99.90;;;;;;5026729;28;20489;-72
2022/07/16 08:54:29;;;;;;;3.93;2.30;;;22.90;99.90;;;;;;5026838;28;20457;-72
2022/07/16 08:56:57;;;;;;;4.73;2.53;;;22.90;99.90;;;;;;5023616;28;20470;-74
2022/07/16 08:59:24;;;;;;;3.90;2.10;;;23.10;99.90;;;;;;5020674;28;20873;-74
2022/07/16 09:01:51;;;;;;;4.60;2.40;;;23.40;99.90;;;;;;5026277;28;20453;-74
2022/07/16 09:04:17;;;;;;;3.60;2.50;;;23.70;99.90;;;;;;5024677;28;20493;-74
2022/07/16 09:06:46;;;;;;;10.60;2.60;;;23.80;99.90;;;;;;5020857;28;20473;-74
2022/07/16 09:09:13;;;;;;;4.17;2.13;;;24.00;99.90;;;;;;5027512;28;20456;-73
2022/07/16 09:11:40;;;;;;;5.60;2.13;;;23.80;99.90;;;;;;5015846;28;20488;-74
2022/07/16 09:14:08;;;;;;;12.60;2.30;;;23.60;99.90;;;;;;5024180;28;20450;-74
2022/07/16 09:16:38;;;;;;;9.03;2.40;;;23.60;99.90;;;;;;5028259;28;20473;-74
2022/07/16 09:19:07;;;;;;;7.60;2.40;;;23.60;99.90;;;;;;5024969;28;20453;-74
2022/07/16 09:21:34;;;;;;;3.63;2.10;;;23.70;99.90;;;;;;5027621;28;20450;-74
2022/07/16 09:24:04;;;;;;;5.90;2.17;;;23.80;99.90;;;;;;5030224;28;20477;-75
2022/07/16 09:26:31;;;;;;;4.60;2.40;;;23.90;99.90;;;;;;5029355;28;20539;-74
2022/07/16 09:29:05;;;;;;;4.80;2.37;;;24.10;99.90;;;;;;5029564;28;20449;-74
2022/07/16 09:31:34;;;;;;;4.83;2.30;;;24.30;99.90;;;;;;5028727;28;20449;-74
2022/07/16 09:34:03;;;;;;;5.40;2.80;;;24.50;99.90;;;;;;5017793;28;20500;-74
2022/07/16 09:36:29;;;;;;;5.93;2.70;;;24.60;99.90;;;;;;5016827;28;20475;-75
2022/07/16 09:38:56;;;;;;;6.93;2.33;;;24.50;99.90;;;;;;5015993;28;20505;-74
2022/07/16 09:41:24;;;;;;;2.77;2.50;;;24.30;99.90;;;;;;5015379;28;20458;-73
2022/07/16 09:43:51;;;;;;;4.17;2.30;;;24.00;99.90;;;;;;5016607;28;21076;-73
2022/07/16 09:46:19;;;;;;;7.30;2.30;;;23.80;99.90;;;;;;5025212;28;20901;-74
2022/07/16 09:48:46;;;;;;;7.83;2.97;;;23.70;99.90;;;;;;5016448;28;20496;-74
2022/07/16 09:51:16;;;;;;;7.90;2.90;;;23.70;99.90;;;;;;5014793;28;20450;-74
2022/07/16 09:53:44;;;;;;;4.17;2.30;;;23.70;99.90;;;;;;5026943;28;20951;-74
2022/07/16 09:56:14;;;;;;;4.97;2.77;;;23.80;99.90;;;;;;5018411;28;20832;-74
2022/07/16 09:58:46;;;;;;;5.73;3.03;;;23.80;99.90;;;;;;5016234;28;20449;-74
2022/07/16 10:01:14;;;;;;;5.70;3.37;;;23.70;99.90;;;;;;5017626;28;20470;-74
2022/07/16 10:03:41;;;;;;;10.30;3.27;;;23.50;99.90;;;;;;5022915;28;20532;-74
2022/07/16 10:06:08;;;;;;;6.80;2.60;;;23.50;99.90;;;;;;5023305;28;20478;-74
2022/07/16 10:08:34;;;;;;;3.73;2.60;;;23.30;99.90;;;;;;5015982;28;20462;-74
2022/07/16 10:11:01;;;;;;;6.90;3.10;;;23.50;99.90;;;;;;5017976;28;20458;-73
2022/07/16 10:13:29;;;;;;;5.17;2.90;;;23.70;99.90;;;;;;5027456;28;20454;-76
2022/07/16 10:15:57;;;;;;;4.00;2.63;;;24.00;99.90;;;;;;5022261;28;20997;-75
2022/07/16 10:18:42;;;;;;;3.90;2.50;;;24.10;99.90;;;;;;5019712;28;20973;-75
2022/07/16 10:21:15;;;;;;;8.93;2.80;;;24.40;99.90;;;;;;5028698;28;20503;-74
2022/07/16 10:23:44;;;;;;;3.63;2.83;;;24.70;99.90;;;;;;5016459;28;20529;-74
2022/07/16 10:26:16;;;;;;;5.87;2.20;;;25.10;99.90;;;;;;5025092;28;20493;-75
2022/07/16 10:28:48;;;;;;;5.43;2.17;;;25.40;99.90;;;;;;5021035;28;20476;-77
2022/07/16 10:31:41;;;;;;;4.40;2.07;;;25.50;99.90;;;;;;5028908;28;20456;-76
2022/07/16 10:34:39;;;;;;;2.83;2.63;;;25.80;99.90;;;;;;5008205;28;20477;-77
2022/07/16 10:37:09;;;;;;;3.97;2.87;;;25.60;99.90;;;;;;5014690;28;20664;-79
2022/07/16 10:39:50;;;;;;;4.23;2.80;;;25.40;99.90;;;;;;5017490;28;20491;-77
2022/07/16 10:42:17;;;;;;;3.17;2.87;;;25.50;99.90;;;;;;5015246;28;20786;-76
2022/07/16 10:44:46;;;;;;;3.30;2.93;;;25.00;99.90;;;;;;5014664;28;20485;-75
2022/07/16 10:47:16;;;;;;;8.80;2.47;;;24.90;99.90;;;;;;5022149;28;20989;-75
2022/07/16 10:49:43;;;;;;;4.10;3.17;;;24.60;99.90;;;;;;5016108;28;20457;-75
2022/07/16 10:52:14;;;;;;;4.47;3.00;;;24.30;99.90;;;;;;5008639;28;20856;-75
2022/07/16 10:54:41;;;;;;;4.33;2.70;;;24.20;99.90;;;;;;5018253;28;20532;-75
2022/07/16 10:57:10;;;;;;;3.37;2.73;;;23.90;99.90;;;;;;5014711;28;20540;-76
2022/07/16 10:59:38;;;;;;;6.23;3.50;;;24.10;99.90;;;;;;5014821;28;20872;-78
2022/07/16 11:02:06;;;;;;;6.10;3.00;;;24.30;99.90;;;;;;5013616;28;20986;-77
2022/07/16 11:04:37;;;;;;;10.10;4.00;;;24.60;99.90;;;;;;5014710;28;20481;-77
2022/07/16 11:07:08;;;;;;;6.20;2.67;;;24.70;99.90;;;;;;5016218;28;20908;-77
2022/07/16 11:09:36;;;;;;;4.93;3.00;;;24.80;99.90;;;;;;5020238;28;20460;-77
2022/07/16 11:12:08;;;;;;;3.30;2.40;;;24.80;99.90;;;;;;5015177;28;20458;-76
2022/07/16 11:14:36;;;;;;;7.17;2.50;;;25.30;99.90;;;;;;5014896;28;20461;-77
2022/07/16 11:17:03;;;;;;;2.90;2.60;;;25.80;99.90;;;;;;5014043;28;20529;-77
2022/07/16 11:19:30;;;;;;;3.70;2.53;;;25.90;99.90;;;;;;5015007;28;20997;-77
2022/07/16 11:22:00;;;;;;;5.73;2.70;;;26.10;99.90;;;;;;5020016;28;20458;-78
2022/07/16 11:24:29;;;;;;;5.80;2.70;;;26.20;99.90;;;;;;5014626;28;20486;-78
2022/07/16 11:26:56;;;;;;;5.13;2.70;;;26.40;99.90;;;;;;5017233;28;20477;-77
2022/07/16 11:29:26;;;;;;;6.03;2.93;;;26.00;99.90;;;;;;5027173;28;20453;-77
2022/07/16 11:31:55;;;;;;;3.80;2.67;;;26.00;99.90;;;;;;5009267;28;21008;-77
2022/07/16 11:34:23;;;;;;;3.30;2.40;;;25.70;99.90;;;;;;5015510;28;20457;-77
2022/07/16 11:36:52;;;;;;;3.03;2.63;;;25.50;99.80;;;;;;5031071;28;20516;-77
2022/07/16 11:39:21;;;;;;;15.07;3.00;;;25.40;99.90;;;;;;5031585;28;20448;-78
2022/07/16 11:41:49;;;;;;;3.50;2.73;;;25.30;99.90;;;;;;5029794;28;20449;-77
2022/07/16 11:44:18;;;;;;;2.90;2.70;;;25.30;99.90;;;;;;5013840;28;20489;-78
2022/07/16 11:46:47;;;;;;;3.47;2.67;;;25.20;99.90;;;;;;5031007;28;20477;-77
2022/07/16 11:49:23;;;;;;;5.30;2.90;;;25.50;99.90;;;;;;5031542;28;20812;-76
2022/07/16 11:51:49;;;;;;;3.67;2.40;;;26.00;99.90;;;;;;5024800;28;21084;-77
2022/07/16 11:54:16;;;;;;;3.67;2.47;;;26.20;99.40;;;;;;5012165;28;20938;-77
2022/07/16 11:56:45;;;;;;;3.47;2.30;;;26.50;98.80;;;;;;5011767;28;20481;-77
2022/07/16 11:59:24;;;;;;;2.63;2.40;;;26.70;98.70;;;;;;5011376;28;20849;-78
2022/07/16 12:02:02;;;;;;;2.30;2.10;;;27.00;98.40;;;;;;5011847;28;20825;-77
2022/07/16 12:04:37;;;;;;;3.50;2.57;;;27.20;97.20;;;;;;5011368;28;20508;-76
2022/07/16 12:07:06;;;;;;;6.03;3.07;;;26.60;97.30;;;;;;5011742;28;20473;-77
2022/07/16 12:09:35;;;;;;;2.80;2.60;;;26.50;97.90;;;;;;5011212;28;20458;-78
2022/07/16 12:12:09;;;;;;;7.23;2.77;;;26.60;97.30;;;;;;5017714;28;20515;-77
2022/07/16 12:14:47;;;;;;;7.63;2.80;;;26.60;97.30;;;;;;5020701;28;20457;-78
2022/07/16 12:17:29;;;;;;;3.00;2.80;;;26.80;97.50;;;;;;5015638;28;20466;-77
2022/07/16 12:20:20;;;;;;;3.30;3.00;;;27.20;97.00;;;;;;5015262;28;20474;-78
2022/07/16 12:22:58;;;;;;;3.03;2.73;;;27.20;97.00;;;;;;5023898;28;20453;-77
2022/07/16 12:25:32;;;;;;;6.07;3.00;;;26.80;97.10;;;;;;5014604;28;20489;-77
2022/07/16 12:28:01;;;;;;;2.93;2.73;;;26.30;97.80;;;;;;5015214;28;20489;-78
2022/07/16 12:30:34;;;;;;;3.63;2.90;;;26.40;99.20;;;;;;5014991;28;20458;-78
2022/07/16 12:33:02;;;;;;;4.77;3.10;;;26.70;99.00;;;;;;5012670;28;20883;-78
2022/07/16 12:35:36;;;;;;;2.97;2.77;;;26.90;97.70;;;;;;5014356;28;20965;-78
2022/07/16 12:38:03;;;;;;;3.30;2.67;;;26.70;97.60;;;;;;5014663;28;20462;-78
2022/07/16 12:40:30;;;;;;;4.87;3.30;;;26.40;98.00;;;;;;5013900;28;20954;-76
2022/07/16 12:42:57;;;;;;;2.83;2.63;;;26.20;98.60;;;;;;5014530;28;20457;-77
2022/07/16 12:45:26;;;;;;;2.97;2.80;;;26.30;98.10;;;;;;5013799;28;20481;-79
2022/07/16 12:47:53;;;;;;;4.70;2.80;;;26.10;97.40;;;;;;5019693;28;20523;-78
2022/07/16 12:50:20;;;;;;;2.80;2.60;;;26.10;97.80;;;;;;5034539;28;20479;-78
2022/07/16 12:52:47;;;;;;;5.40;2.77;;;26.40;97.90;;;;;;5019075;28;20450;-80
2022/07/16 13:00:44;;;;;;;3.37;2.30;;;27.10;97.60;;;;;;5013932;28;20437;-78